createdAt,value
2023-02-23T00:02:19.103Z,10.30
2023-02-23T00:04:48.200Z,10.30
2023-02-23T00:07:21.739Z,10.30
2023-02-23T00:09:51.034Z,10.40
2023-02-23T00:12:21.082Z,10.50
2023-02-23T00:14:57.023Z,10.50
2023-02-23T00:17:24.835Z,10.50
2023-02-23T00:19:52.650Z,10.50
2023-02-23T00:22:20.237Z,10.60
2023-02-23T00:24:54.216Z,10.60
2023-02-23T00:27:22.034Z,10.60
2023-02-23T00:29:49.938Z,10.50
2023-02-23T00:32:21.969Z,10.50
2023-02-23T00:34:51.918Z,10.50
2023-02-23T00:37:22.070Z,10.60
2023-02-23T00:39:52.221Z,10.60
2023-02-23T00:42:20.251Z,10.60
2023-02-23T00:44:49.079Z,10.60
2023-02-23T00:47:16.631Z,10.60
2023-02-23T00:49:47.409Z,10.60
2023-02-23T00:52:15.307Z,10.70
2023-02-23T00:54:42.968Z,10.80
2023-02-23T00:57:10.843Z,10.90
2023-02-23T00:59:38.631Z,10.90
2023-02-23T01:02:06.596Z,10.80
2023-02-23T01:04:38.188Z,10.60
2023-02-23T01:07:06.934Z,10.50
2023-02-23T01:09:34.524Z,10.40
2023-02-23T01:12:07.618Z,10.30
2023-02-23T01:14:37.705Z,10.20
2023-02-23T01:17:05.581Z,10.30
2023-02-23T01:19:34.325Z,10.40
2023-02-23T01:22:09.208Z,10.40
2023-02-23T01:24:38.771Z,10.40
2023-02-23T01:27:06.456Z,10.60
2023-02-23T01:29:34.950Z,10.60
2023-02-23T01:32:04.846Z,10.70
2023-02-23T01:34:33.121Z,10.60
2023-02-23T01:37:00.816Z,10.70
2023-02-23T01:39:29.642Z,10.80
2023-02-23T01:41:57.258Z,10.70
2023-02-23T01:44:24.830Z,10.60
2023-02-23T01:46:53.437Z,10.60
2023-02-23T01:49:28.529Z,10.60
2023-02-23T01:52:04.464Z,10.60
2023-02-23T01:54:39.954Z,10.60
2023-02-23T01:57:12.120Z,10.60
2023-02-23T01:59:43.324Z,10.60
2023-02-23T02:02:13.654Z,10.70
2023-02-23T02:04:46.004Z,10.80
2023-02-23T02:07:19.134Z,10.90
2023-02-23T02:10:09.975Z,10.90
2023-02-23T02:12:44.450Z,10.90
2023-02-23T02:15:19.992Z,10.80
2023-02-23T02:18:19.519Z,10.80
2023-02-23T02:21:15.124Z,10.90
2023-02-23T02:24:00.910Z,11.00
2023-02-23T02:26:40.256Z,10.80
2023-02-23T02:29:31.450Z,10.80
2023-02-23T02:32:14.562Z,10.80
2023-02-23T02:34:51.358Z,10.90
2023-02-23T02:37:48.141Z,10.90
2023-02-23T02:40:53.588Z,10.70
2023-02-23T02:43:51.731Z,10.60
2023-02-23T02:46:28.800Z,10.60
2023-02-23T02:49:14.902Z,10.60
2023-02-23T02:52:07.103Z,10.70
2023-02-23T02:54:44.159Z,10.70
2023-02-23T02:57:13.919Z,10.80
2023-02-23T03:00:05.624Z,10.80
2023-02-23T03:02:55.837Z,10.80
2023-02-23T03:06:06.610Z,10.80
2023-02-23T03:09:23.849Z,10.80
2023-02-23T03:12:25.552Z,10.50
2023-02-23T03:15:52.854Z,10.50
2023-02-23T03:18:56.200Z,10.50
2023-02-23T03:22:07.809Z,10.50
2023-02-23T03:25:08.610Z,10.50
2023-02-23T03:28:16.663Z,10.40
2023-02-23T03:31:11.544Z,10.50
2023-02-23T03:34:27.106Z,10.60
2023-02-23T03:37:35.241Z,10.80
2023-02-23T03:40:51.259Z,10.80
2023-02-23T03:43:44.909Z,10.70
2023-02-23T03:46:33.623Z,10.50
2023-02-23T03:49:23.746Z,10.40
2023-02-23T03:52:15.758Z,10.40
2023-02-23T03:55:15.563Z,10.40
2023-02-23T03:58:18.490Z,10.50
2023-02-23T04:01:17.133Z,10.50
2023-02-23T04:04:19.438Z,10.50
2023-02-23T04:07:50.486Z,10.60
2023-02-23T04:10:50.649Z,10.70
2023-02-23T04:13:27.085Z,10.70
2023-02-23T04:16:04.577Z,10.80
2023-02-23T04:18:39.738Z,10.70
2023-02-23T04:21:10.834Z,10.40
2023-02-23T04:23:42.467Z,10.40
2023-02-23T04:26:18.952Z,10.60
2023-02-23T04:28:47.604Z,10.60
2023-02-23T04:31:29.772Z,10.60
2023-02-23T04:34:39.146Z,10.60
2023-02-23T04:37:06.882Z,10.50
2023-02-23T04:39:34.386Z,10.30
2023-02-23T04:42:14.451Z,10.10
2023-02-23T04:44:42.238Z,10.10
2023-02-23T04:47:15.542Z,10.10
2023-02-23T04:49:46.271Z,10.10
2023-02-23T04:52:26.310Z,10.20
2023-02-23T04:55:52.323Z,10.30
2023-02-23T04:58:56.870Z,10.10
2023-02-23T05:01:24.554Z,10.10
2023-02-23T05:03:57.762Z,10.20
2023-02-23T05:06:25.480Z,10.20
2023-02-23T05:08:55.556Z,10.20
2023-02-23T05:11:23.358Z,10.20
2023-02-23T05:13:54.294Z,10.30
2023-02-23T05:16:22.204Z,10.40
2023-02-23T05:19:04.692Z,10.30
2023-02-23T05:21:41.471Z,10.40
2023-02-23T05:24:24.300Z,10.30
2023-02-23T05:27:09.898Z,10.20
2023-02-23T05:30:12.941Z,10.30
2023-02-23T05:33:00.727Z,10.20
2023-02-23T05:38:44.293Z,10.30
2023-02-23T05:41:24.481Z,10.40
2023-02-23T05:44:00.769Z,10.30
2023-02-23T05:49:29.041Z,10.70
2023-02-23T05:55:01.840Z,10.70
2023-02-23T05:57:45.950Z,10.80
2023-02-23T06:00:18.374Z,10.70
2023-02-23T06:02:49.143Z,10.70
2023-02-23T06:05:16.841Z,10.60
2023-02-23T06:07:44.836Z,10.60
2023-02-23T06:10:12.709Z,10.60
2023-02-23T06:12:40.285Z,10.40
2023-02-23T06:15:08.586Z,10.20
2023-02-23T06:17:36.480Z,10.20
2023-02-23T06:20:05.423Z,10.30
2023-02-23T06:22:33.102Z,10.20
2023-02-23T06:25:00.690Z,10.20
2023-02-23T06:27:28.148Z,10.20
2023-02-23T06:29:55.635Z,10.10
2023-02-23T06:32:23.359Z,10.40
2023-02-23T06:34:52.087Z,10.60
2023-02-23T06:37:19.871Z,10.50
2023-02-23T06:39:47.916Z,10.50
2023-02-23T06:42:15.580Z,10.60
2023-02-23T06:44:43.062Z,10.40
2023-02-23T06:47:11.394Z,10.40
2023-02-23T06:49:40.531Z,10.50
2023-02-23T06:52:09.667Z,10.50
2023-02-23T06:54:40.095Z,10.50
2023-02-23T06:57:08.618Z,10.40
2023-02-23T06:59:37.048Z,10.30
2023-02-23T07:02:05.846Z,10.30
2023-02-23T07:04:33.895Z,10.30
2023-02-23T07:07:09.730Z,10.40
2023-02-23T07:09:48.129Z,10.50
2023-02-23T07:12:15.833Z,10.50
2023-02-23T07:14:43.324Z,10.60
2023-02-23T07:17:12.583Z,10.50
2023-02-23T07:19:40.263Z,10.50
2023-02-23T07:22:07.869Z,10.50
2023-02-23T07:24:35.375Z,10.50
2023-02-23T07:27:03.098Z,10.60
2023-02-23T07:29:30.917Z,10.80
2023-02-23T07:31:58.519Z,11.00
2023-02-23T07:34:27.431Z,11.10
2023-02-23T07:36:54.973Z,11.10
2023-02-23T07:39:22.486Z,11.00
2023-02-23T07:41:51.199Z,11.00
2023-02-23T07:44:19.981Z,10.90
2023-02-23T07:46:47.610Z,10.80
2023-02-23T07:49:15.286Z,10.80
2023-02-23T07:51:42.708Z,10.80
2023-02-23T07:54:10.170Z,10.90
2023-02-23T07:56:37.677Z,10.90
2023-02-23T07:59:05.275Z,11.20
2023-02-23T08:01:32.867Z,11.30
2023-02-23T08:04:01.125Z,11.30
2023-02-23T08:06:29.119Z,11.30
2023-02-23T08:09:00.339Z,11.30
2023-02-23T08:11:31.066Z,11.30
2023-02-23T08:14:00.396Z,11.40
2023-02-23T08:16:32.808Z,11.50
2023-02-23T08:19:01.645Z,11.60
2023-02-23T08:24:32.222Z,11.70
2023-02-23T08:27:01.506Z,11.90
2023-02-23T08:29:29.758Z,11.90
2023-02-23T08:32:05.249Z,12.10
2023-02-23T08:34:32.852Z,12.00
2023-02-23T08:37:00.528Z,12.10
2023-02-23T08:39:30.463Z,12.00
2023-02-23T08:42:01.733Z,11.90
2023-02-23T08:44:29.309Z,12.00
2023-02-23T08:46:58.439Z,12.10
2023-02-23T08:49:26.212Z,12.20
2023-02-23T08:51:53.985Z,12.40
2023-02-23T08:54:24.236Z,12.20
2023-02-23T08:56:55.402Z,12.40
2023-02-23T08:59:24.275Z,12.30
2023-02-23T09:01:54.774Z,12.40
2023-02-23T09:04:25.556Z,12.40
2023-02-23T09:06:54.492Z,12.40
2023-02-23T09:09:25.326Z,12.50
2023-02-23T09:11:53.312Z,12.40
2023-02-23T09:14:24.832Z,12.50
2023-02-23T09:16:52.525Z,12.70
2023-02-23T09:19:22.728Z,12.70
2023-02-23T09:21:50.414Z,12.80
2023-02-23T09:24:18.676Z,12.70
2023-02-23T09:26:46.196Z,12.80
2023-02-23T09:29:14.507Z,12.90
2023-02-23T09:31:47.023Z,12.90
2023-02-23T09:34:15.461Z,12.80
2023-02-23T09:36:43.046Z,12.90
2023-02-23T09:39:11.048Z,13.00
2023-02-23T09:42:05.488Z,12.90
2023-02-23T09:45:14.767Z,13.00
2023-02-23T09:48:19.738Z,13.10
2023-02-23T09:50:54.171Z,13.20
2023-02-23T09:53:36.576Z,13.20
2023-02-23T09:56:11.502Z,13.30
2023-02-23T09:58:40.529Z,13.30
2023-02-23T10:01:27.960Z,13.30
2023-02-23T10:04:20.385Z,13.20
2023-02-23T10:07:13.705Z,13.30
2023-02-23T10:10:08.439Z,13.20
2023-02-23T10:13:02.216Z,13.20
2023-02-23T10:15:56.072Z,13.40
2023-02-23T10:18:46.193Z,13.50
2023-02-23T10:21:30.853Z,13.70
2023-02-23T10:24:11.764Z,13.70
2023-02-23T10:26:54.338Z,13.70
2023-02-23T10:29:31.863Z,13.60
2023-02-23T10:32:47.180Z,13.70
2023-02-23T10:35:17.747Z,13.70
2023-02-23T10:37:53.589Z,13.50
2023-02-23T10:40:31.372Z,13.40
2023-02-23T10:43:01.956Z,13.30
2023-02-23T10:45:34.597Z,13.10
2023-02-23T10:48:13.638Z,13.00
2023-02-23T10:50:42.855Z,13.00
2023-02-23T10:53:36.453Z,12.90
2023-02-23T10:59:01.944Z,12.90
2023-02-23T11:02:07.587Z,13.10
2023-02-23T11:09:09.580Z,13.50
2023-02-23T11:12:24.227Z,13.50
2023-02-23T11:22:52.377Z,13.60
2023-02-23T11:29:50.136Z,13.70
2023-02-23T11:59:46.245Z,13.60
2023-02-23T12:03:19.346Z,13.70
2023-02-23T12:05:53.581Z,13.80
2023-02-23T12:08:33.745Z,13.90
2023-02-23T12:11:07.645Z,14.00
2023-02-23T12:13:41.737Z,14.10
2023-02-23T12:16:44.336Z,14.00
2023-02-23T12:19:34.169Z,14.10
2023-02-23T12:22:13.336Z,14.20
2023-02-23T12:24:49.092Z,14.50
2023-02-23T12:27:22.767Z,14.40
2023-02-23T12:30:09.229Z,14.40
2023-02-23T12:36:31.872Z,14.50
2023-02-23T12:39:05.115Z,14.60
2023-02-23T12:41:41.501Z,14.40
2023-02-23T12:44:45.027Z,14.50
2023-02-23T12:47:23.010Z,14.30
2023-02-23T12:50:17.435Z,14.40
2023-02-23T12:52:58.770Z,14.40
2023-02-23T12:55:42.036Z,14.40
2023-02-23T12:58:50.725Z,14.60
2023-02-23T13:01:43.135Z,14.60
2023-02-23T13:04:26.235Z,14.70
2023-02-23T13:07:15.202Z,14.80
2023-02-23T13:10:20.179Z,14.80
2023-02-23T13:13:30.331Z,14.70
2023-02-23T13:16:04.533Z,14.70
2023-02-23T13:19:07.571Z,14.60
2023-02-23T13:22:01.951Z,14.60
2023-02-23T13:24:49.618Z,14.60
2023-02-23T13:27:36.546Z,14.70
2023-02-23T13:30:09.409Z,14.70
2023-02-23T13:32:39.433Z,14.60
2023-02-23T13:35:19.202Z,14.50
2023-02-23T13:37:59.770Z,14.50
2023-02-23T13:40:41.750Z,14.30
2023-02-23T13:43:30.205Z,14.20
2023-02-23T13:46:24.454Z,14.60
2023-02-23T13:49:16.420Z,14.70
2023-02-23T13:51:54.234Z,14.70
2023-02-23T13:54:35.934Z,14.50
2023-02-23T13:57:12.671Z,14.30
2023-02-23T13:59:48.234Z,14.20
2023-02-23T14:02:36.191Z,14.30
2023-02-23T14:05:17.544Z,14.40
2023-02-23T14:07:48.885Z,14.40
2023-02-23T14:10:26.200Z,14.40
2023-02-23T14:13:13.400Z,14.30
2023-02-23T14:15:53.740Z,14.20
2023-02-23T14:18:21.357Z,14.20
2023-02-23T14:21:05.149Z,14.20
2023-02-23T14:24:05.520Z,14.20
2023-02-23T14:26:39.114Z,14.10
2023-02-23T14:29:28.025Z,14.20
2023-02-23T14:32:10.742Z,14.20
2023-02-23T14:35:00.916Z,14.30
2023-02-23T14:37:34.160Z,14.30
2023-02-23T14:40:12.472Z,14.20
2023-02-23T14:42:41.329Z,14.20
2023-02-23T14:45:28.943Z,14.20
2023-02-23T14:48:01.733Z,14.20
2023-02-23T14:50:35.400Z,14.20
2023-02-23T14:53:06.429Z,14.10
2023-02-23T14:55:37.581Z,14.10
2023-02-23T14:58:30.446Z,14.20
2023-02-23T15:00:58.172Z,14.30
2023-02-23T15:03:25.927Z,14.20
2023-02-23T15:05:57.504Z,14.20
2023-02-23T15:08:27.445Z,14.20
2023-02-23T15:11:11.572Z,14.10
2023-02-23T15:13:43.099Z,14.10
2023-02-23T15:16:16.568Z,14.10
2023-02-23T15:18:45.094Z,13.90
2023-02-23T15:21:17.435Z,13.90
2023-02-23T15:23:48.606Z,13.90
2023-02-23T15:26:25.998Z,13.80
2023-02-23T15:28:53.759Z,13.80
2023-02-23T15:31:21.603Z,13.80
2023-02-23T15:33:50.863Z,13.70
2023-02-23T15:36:34.885Z,13.80
2023-02-23T15:39:06.266Z,13.70
2023-02-23T15:41:38.456Z,13.70
2023-02-23T15:44:12.102Z,13.70
2023-02-23T15:46:41.836Z,13.70
2023-02-23T15:49:13.396Z,13.70
2023-02-23T15:51:49.099Z,13.70
2023-02-23T15:54:42.949Z,13.70
2023-02-23T15:57:27.053Z,13.70
2023-02-23T15:59:58.907Z,13.60
2023-02-23T16:02:26.530Z,13.60
2023-02-23T16:04:54.096Z,13.60
2023-02-23T16:07:24.671Z,13.50
2023-02-23T16:10:27.990Z,13.40
2023-02-23T16:12:55.607Z,13.30
2023-02-23T16:15:29.691Z,13.20
2023-02-23T16:18:01.414Z,13.30
2023-02-23T16:20:45.958Z,13.20
2023-02-23T16:23:33.366Z,13.30
2023-02-23T16:30:43.409Z,13.30
2023-02-23T16:33:13.198Z,13.20
2023-02-23T16:35:51.923Z,13.20
2023-02-23T16:38:26.882Z,13.10
2023-02-23T16:40:54.758Z,13.00
2023-02-23T16:43:22.421Z,13.00
2023-02-23T16:45:50.164Z,12.90
2023-02-23T16:48:18.947Z,12.90
2023-02-23T16:50:48.014Z,12.90
2023-02-23T16:53:16.977Z,12.90
2023-02-23T16:55:54.184Z,12.80
2023-02-23T16:58:24.822Z,12.70
2023-02-23T17:00:53.812Z,12.70
2023-02-23T17:03:27.508Z,12.80
2023-02-23T17:05:55.065Z,12.70
2023-02-23T17:08:24.632Z,12.60
2023-02-23T17:10:55.563Z,12.50
2023-02-23T17:13:27.605Z,12.60
2023-02-23T17:15:56.521Z,12.60
2023-02-23T17:18:26.840Z,12.50
2023-02-23T17:21:00.988Z,12.60
2023-02-23T17:23:39.121Z,12.50
2023-02-23T17:26:08.710Z,12.50
2023-02-23T17:28:36.803Z,12.40
2023-02-23T17:31:05.493Z,12.40
2023-02-23T17:33:33.695Z,12.50
2023-02-23T17:36:06.824Z,12.40
2023-02-23T17:38:34.655Z,12.30
2023-02-23T17:41:04.829Z,12.30
2023-02-23T17:46:32.565Z,12.10
2023-02-23T17:49:00.102Z,11.90
2023-02-23T17:51:27.987Z,11.80
2023-02-23T17:53:55.565Z,11.70
2023-02-23T17:56:31.797Z,11.50
2023-02-23T17:58:59.507Z,11.40
2023-02-23T18:01:27.476Z,11.30
2023-02-23T18:03:58.560Z,11.30
2023-02-23T18:06:26.059Z,11.20
2023-02-23T18:08:53.853Z,11.10
2023-02-23T18:11:21.275Z,11.00
2023-02-23T18:13:51.477Z,10.90
2023-02-23T18:16:19.889Z,11.00
2023-02-23T18:18:49.076Z,10.90
2023-02-23T18:21:23.836Z,10.90
2023-02-23T18:23:51.630Z,10.80
2023-02-23T18:26:25.976Z,10.70
2023-02-23T18:28:57.336Z,10.70
2023-02-23T18:31:30.390Z,10.60
2023-02-23T18:34:01.481Z,10.60
2023-02-23T18:36:38.234Z,10.60
2023-02-23T18:39:07.711Z,10.60
2023-02-23T18:41:35.388Z,10.60
2023-02-23T18:44:05.619Z,10.60
2023-02-23T18:46:33.713Z,10.50
2023-02-23T18:49:01.956Z,10.40
2023-02-23T18:51:29.823Z,10.40
2023-02-23T18:53:57.342Z,10.40
2023-02-23T18:56:28.333Z,10.30
2023-02-23T18:58:59.386Z,10.30
2023-02-23T19:01:30.509Z,10.30
2023-02-23T19:04:01.248Z,10.40
2023-02-23T19:06:30.038Z,10.40
2023-02-23T19:09:00.114Z,10.40
2023-02-23T19:11:30.739Z,10.40
2023-02-23T19:14:01.343Z,10.40
2023-02-23T19:16:33.102Z,10.50
2023-02-23T19:19:02.033Z,10.50
2023-02-23T19:21:29.584Z,10.50
2023-02-23T19:23:57.825Z,10.40
2023-02-23T19:26:26.880Z,10.40
2023-02-23T19:28:54.375Z,10.30
2023-02-23T19:31:26.042Z,10.40
2023-02-23T19:33:56.040Z,10.40
2023-02-23T19:36:29.793Z,10.40
2023-02-23T19:39:06.138Z,10.40
2023-02-23T19:41:34.701Z,10.40
2023-02-23T19:44:02.924Z,10.50
2023-02-23T19:46:30.485Z,10.50
2023-02-23T19:48:58.019Z,10.60
2023-02-23T19:51:25.549Z,10.60
2023-02-23T19:53:54.801Z,10.50
2023-02-23T19:56:24.944Z,10.50
2023-02-23T19:58:52.957Z,10.50
2023-02-23T20:01:23.024Z,10.40
2023-02-23T20:04:01.801Z,10.30
2023-02-23T20:06:32.346Z,10.20
2023-02-23T20:09:00.476Z,10.10
2023-02-23T20:11:30.021Z,10.00
2023-02-23T20:13:57.811Z,10.20
2023-02-23T20:16:29.711Z,10.20
2023-02-23T20:18:58.348Z,10.20
2023-02-23T20:21:30.216Z,10.30
2023-02-23T20:23:58.040Z,10.40
2023-02-23T20:26:34.256Z,10.50
2023-02-23T20:29:03.355Z,10.60
2023-02-23T20:31:37.516Z,10.50
2023-02-23T20:34:08.883Z,10.50
2023-02-23T20:36:36.439Z,10.50
2023-02-23T20:39:05.286Z,10.50
2023-02-23T20:41:33.569Z,10.40
2023-02-23T20:44:04.086Z,10.30
2023-02-23T20:46:32.138Z,10.30
2023-02-23T20:49:05.206Z,10.40
2023-02-23T20:51:33.054Z,10.30
2023-02-23T20:54:00.841Z,10.30
2023-02-23T20:56:43.462Z,10.20
2023-02-23T20:59:16.378Z,10.30
2023-02-23T21:01:45.353Z,10.40
2023-02-23T21:04:13.472Z,10.40
2023-02-23T21:06:44.807Z,10.30
2023-02-23T21:09:21.288Z,10.40
2023-02-23T21:11:50.371Z,10.50
2023-02-23T21:14:22.271Z,10.60
2023-02-23T21:16:52.847Z,10.50
2023-02-23T21:19:24.782Z,10.50
2023-02-23T21:21:58.053Z,10.30
2023-02-23T21:24:26.510Z,10.30
2023-02-23T21:26:57.530Z,10.20
2023-02-23T21:29:26.464Z,10.10
2023-02-23T21:31:54.399Z,10.00
2023-02-23T21:34:29.152Z,9.90
2023-02-23T21:37:02.116Z,9.80
2023-02-23T21:39:31.311Z,9.70
2023-02-23T21:42:30.069Z,9.70
2023-02-23T21:44:48.328Z,9.80
2023-02-23T21:47:21.430Z,9.90
2023-02-23T21:49:53.822Z,10.00
2023-02-23T21:52:31.301Z,9.70
2023-02-23T21:55:05.705Z,9.60
2023-02-23T21:57:35.598Z,9.60
2023-02-23T22:00:04.133Z,9.80
2023-02-23T22:02:48.748Z,9.80
2023-02-23T22:07:59.545Z,9.60
2023-02-23T22:10:30.843Z,9.60
2023-02-23T22:13:05.810Z,9.50
2023-02-23T22:15:37.891Z,9.40
2023-02-23T22:18:05.357Z,9.40
2023-02-23T22:20:32.851Z,9.40
2023-02-23T22:23:00.277Z,9.30
2023-02-23T22:25:31.219Z,9.20
2023-02-23T22:27:58.757Z,9.20
2023-02-23T22:30:28.451Z,9.20
2023-02-23T22:32:59.112Z,9.20
2023-02-23T22:35:29.168Z,9.20
2023-02-23T22:37:56.602Z,9.20
2023-02-23T22:40:24.382Z,9.20
2023-02-23T22:42:52.388Z,9.20
2023-02-23T22:45:20.405Z,9.20
2023-02-23T22:47:47.966Z,9.40
2023-02-23T22:50:19.335Z,9.40
2023-02-23T22:52:47.090Z,9.40
2023-02-23T22:55:14.739Z,9.30
2023-02-23T22:57:42.480Z,9.30
2023-02-23T23:00:10.713Z,9.20
2023-02-23T23:02:38.516Z,9.20
2023-02-23T23:05:06.817Z,9.10
2023-02-23T23:07:34.494Z,9.10
2023-02-23T23:10:05.816Z,9.00
2023-02-23T23:12:34.503Z,9.10
2023-02-23T23:15:07.277Z,9.00
2023-02-23T23:17:36.089Z,9.00
2023-02-23T23:20:11.790Z,9.00
2023-02-23T23:22:39.462Z,9.00
2023-02-23T23:25:14.791Z,8.90
2023-02-23T23:27:44.982Z,9.00
2023-02-23T23:30:13.458Z,9.00
2023-02-23T23:32:41.471Z,8.90
2023-02-23T23:35:13.684Z,8.90
2023-02-23T23:37:42.493Z,8.90
2023-02-23T23:40:14.758Z,9.00
2023-02-23T23:42:46.207Z,9.00
2023-02-23T23:45:16.356Z,9.10
2023-02-23T23:47:47.622Z,9.00
2023-02-23T23:50:17.959Z,9.00
2023-02-23T23:52:50.943Z,8.90
2023-02-23T23:55:19.333Z,8.60
2023-02-23T23:57:46.978Z,8.40
